sensor_id;sensor_type;location;lat;lon;timestamp;P1;durP1;ratioP1;P2;durP2;ratioP2
68653;SDS011;55636;51.108;13.622;2022-10-15T00:00:32;10.30;;;8.57;;
68653;SDS011;55636;51.108;13.622;2022-10-15T00:01:35;10.15;;;8.38;;
68653;SDS011;55636;51.108;13.622;2022-10-15T00:02:38;9.63;;;8.13;;
68653;SDS011;55636;51.108;13.622;2022-10-15T00:03:41;10.48;;;8.60;;
68653;SDS011;55636;51.108;13.622;2022-10-15T00:04:45;12.15;;;9.20;;
68653;SDS011;55636;51.108;13.622;2022-10-15T00:05:49;9.35;;;8.43;;
68653;SDS011;55636;51.108;13.622;2022-10-15T00:06:51;10.77;;;8.38;;
68653;SDS011;55636;51.108;13.622;2022-10-15T00:07:53;11.80;;;8.60;;
68653;SDS011;55636;51.108;13.622;2022-10-15T00:08:55;9.98;;;8.70;;
68653;SDS011;55636;51.108;13.622;2022-10-15T00:09:58;9.60;;;8.60;;
68653;SDS011;55636;51.108;13.622;2022-10-15T00:11:04;10.02;;;8.20;;
68653;SDS011;55636;51.108;13.622;2022-10-15T00:12:12;11.00;;;8.48;;
68653;SDS011;55636;51.108;13.622;2022-10-15T00:13:14;11.18;;;8.52;;
68653;SDS011;55636;51.108;13.622;2022-10-15T00:14:16;10.73;;;8.63;;
68653;SDS011;55636;51.108;13.622;2022-10-15T00:15:19;10.02;;;8.48;;
68653;SDS011;55636;51.108;13.622;2022-10-15T00:16:22;9.57;;;8.45;;
68653;SDS011;55636;51.108;13.622;2022-10-15T00:17:29;9.90;;;8.15;;
68653;SDS011;55636;51.108;13.622;2022-10-15T00:18:32;8.90;;;7.95;;
68653;SDS011;55636;51.108;13.622;2022-10-15T00:19:34;10.90;;;8.73;;
68653;SDS011;55636;51.108;13.622;2022-10-15T00:20:39;10.25;;;7.93;;
68653;SDS011;55636;51.108;13.622;2022-10-15T00:21:42;11.00;;;8.02;;
68653;SDS011;55636;51.108;13.622;2022-10-15T00:22:44;9.32;;;8.32;;
68653;SDS011;55636;51.108;13.622;2022-10-15T00:23:47;9.30;;;8.15;;
68653;SDS011;55636;51.108;13.622;2022-10-15T00:24:50;9.05;;;8.15;;
68653;SDS011;55636;51.108;13.622;2022-10-15T00:26:05;9.10;;;8.07;;
68653;SDS011;55636;51.108;13.622;2022-10-15T00:27:14;10.70;;;8.68;;
68653;SDS011;55636;51.108;13.622;2022-10-15T00:28:16;8.30;;;7.50;;
68653;SDS011;55636;51.108;13.622;2022-10-15T00:29:19;11.68;;;8.35;;
68653;SDS011;55636;51.108;13.622;2022-10-15T00:30:21;9.38;;;8.15;;
68653;SDS011;55636;51.108;13.622;2022-10-15T00:31:26;9.48;;;8.32;;
68653;SDS011;55636;51.108;13.622;2022-10-15T00:32:30;9.32;;;8.15;;
68653;SDS011;55636;51.108;13.622;2022-10-15T00:33:33;9.25;;;7.80;;
68653;SDS011;55636;51.108;13.622;2022-10-15T00:34:35;10.00;;;7.97;;
68653;SDS011;55636;51.108;13.622;2022-10-15T00:35:38;8.93;;;7.95;;
68653;SDS011;55636;51.108;13.622;2022-10-15T00:36:40;11.00;;;8.27;;
68653;SDS011;55636;51.108;13.622;2022-10-15T00:37:42;9.73;;;8.18;;
68653;SDS011;55636;51.108;13.622;2022-10-15T00:38:45;10.15;;;7.95;;
68653;SDS011;55636;51.108;13.622;2022-10-15T00:39:48;9.35;;;7.88;;
68653;SDS011;55636;51.108;13.622;2022-10-15T00:40:50;11.35;;;8.65;;
68653;SDS011;55636;51.108;13.622;2022-10-15T00:41:53;9.60;;;7.60;;
68653;SDS011;55636;51.108;13.622;2022-10-15T00:42:55;10.55;;;7.80;;
68653;SDS011;55636;51.108;13.622;2022-10-15T00:43:58;10.55;;;8.65;;
68653;SDS011;55636;51.108;13.622;2022-10-15T00:45:03;8.90;;;8.00;;
68653;SDS011;55636;51.108;13.622;2022-10-15T00:46:14;9.32;;;8.13;;
68653;SDS011;55636;51.108;13.622;2022-10-15T00:47:28;12.13;;;8.40;;
68653;SDS011;55636;51.108;13.622;2022-10-15T00:48:40;9.70;;;7.88;;
68653;SDS011;55636;51.108;13.622;2022-10-15T00:49:43;9.73;;;8.02;;
68653;SDS011;55636;51.108;13.622;2022-10-15T00:50:59;10.48;;;8.80;;
68653;SDS011;55636;51.108;13.622;2022-10-15T00:52:07;8.80;;;7.85;;
68653;SDS011;55636;51.108;13.622;2022-10-15T00:53:12;9.13;;;8.00;;
68653;SDS011;55636;51.108;13.622;2022-10-15T00:54:15;9.55;;;8.10;;
68653;SDS011;55636;51.108;13.622;2022-10-15T00:55:20;10.65;;;7.80;;
68653;SDS011;55636;51.108;13.622;2022-10-15T00:56:34;10.98;;;8.95;;
68653;SDS011;55636;51.108;13.622;2022-10-15T00:57:38;11.15;;;8.48;;
68653;SDS011;55636;51.108;13.622;2022-10-15T00:58:42;9.07;;;8.18;;
68653;SDS011;55636;51.108;13.622;2022-10-15T00:59:51;9.38;;;8.18;;
68653;SDS011;55636;51.108;13.622;2022-10-15T01:00:58;10.85;;;8.35;;
68653;SDS011;55636;51.108;13.622;2022-10-15T01:02:01;8.75;;;7.82;;
68653;SDS011;55636;51.108;13.622;2022-10-15T01:03:04;10.65;;;8.60;;
68653;SDS011;55636;51.108;13.622;2022-10-15T01:04:06;10.57;;;8.10;;
68653;SDS011;55636;51.108;13.622;2022-10-15T01:05:09;9.65;;;8.40;;
68653;SDS011;55636;51.108;13.622;2022-10-15T01:06:14;9.52;;;8.38;;
68653;SDS011;55636;51.108;13.622;2022-10-15T01:07:16;8.95;;;8.05;;
68653;SDS011;55636;51.108;13.622;2022-10-15T01:08:22;9.27;;;8.30;;
68653;SDS011;55636;51.108;13.622;2022-10-15T01:09:24;10.98;;;8.82;;
68653;SDS011;55636;51.108;13.622;2022-10-15T01:10:31;9.93;;;8.38;;
68653;SDS011;55636;51.108;13.622;2022-10-15T01:11:55;11.38;;;8.68;;
68653;SDS011;55636;51.108;13.622;2022-10-15T01:13:13;9.35;;;8.23;;
68653;SDS011;55636;51.108;13.622;2022-10-15T01:22:04;9.30;;;8.07;;
68653;SDS011;55636;51.108;13.622;2022-10-15T01:24:41;9.30;;;8.30;;
68653;SDS011;55636;51.108;13.622;2022-10-15T01:25:54;9.77;;;8.40;;
68653;SDS011;55636;51.108;13.622;2022-10-15T01:30:44;10.48;;;9.07;;
68653;SDS011;55636;51.108;13.622;2022-10-15T01:32:01;10.13;;;8.73;;
68653;SDS011;55636;51.108;13.622;2022-10-15T01:33:08;10.75;;;8.55;;
68653;SDS011;55636;51.108;13.622;2022-10-15T01:35:59;9.48;;;8.48;;
68653;SDS011;55636;51.108;13.622;2022-10-15T01:40:31;9.35;;;8.35;;
68653;SDS011;55636;51.108;13.622;2022-10-15T01:44:50;10.18;;;8.02;;
68653;SDS011;55636;51.108;13.622;2022-10-15T01:46:10;10.13;;;9.05;;
68653;SDS011;55636;51.108;13.622;2022-10-15T01:47:57;10.30;;;8.75;;
68653;SDS011;55636;51.108;13.622;2022-10-15T01:49:03;11.35;;;9.07;;
68653;SDS011;55636;51.108;13.622;2022-10-15T01:50:10;9.77;;;8.85;;
68653;SDS011;55636;51.108;13.622;2022-10-15T01:51:14;10.10;;;9.05;;
68653;SDS011;55636;51.108;13.622;2022-10-15T01:52:20;11.65;;;9.35;;
68653;SDS011;55636;51.108;13.622;2022-10-15T01:53:27;10.60;;;9.43;;
68653;SDS011;55636;51.108;13.622;2022-10-15T01:54:31;11.57;;;9.37;;
68653;SDS011;55636;51.108;13.622;2022-10-15T01:55:35;10.77;;;9.63;;
68653;SDS011;55636;51.108;13.622;2022-10-15T01:56:41;9.90;;;8.75;;
68653;SDS011;55636;51.108;13.622;2022-10-15T01:57:54;11.77;;;9.60;;
68653;SDS011;55636;51.108;13.622;2022-10-15T01:58:59;11.30;;;9.25;;
68653;SDS011;55636;51.108;13.622;2022-10-15T02:00:03;12.15;;;9.40;;
68653;SDS011;55636;51.108;13.622;2022-10-15T02:01:14;10.60;;;9.50;;
68653;SDS011;55636;51.108;13.622;2022-10-15T02:02:19;10.68;;;9.27;;
68653;SDS011;55636;51.108;13.622;2022-10-15T02:03:22;11.15;;;9.05;;
68653;SDS011;55636;51.108;13.622;2022-10-15T02:04:26;9.73;;;8.73;;
68653;SDS011;55636;51.108;13.622;2022-10-15T02:05:41;11.20;;;9.05;;
68653;SDS011;55636;51.108;13.622;2022-10-15T02:06:54;11.00;;;9.35;;
68653;SDS011;55636;51.108;13.622;2022-10-15T02:11:15;12.70;;;10.10;;
68653;SDS011;55636;51.108;13.622;2022-10-15T02:12:32;10.15;;;8.95;;
68653;SDS011;55636;51.108;13.622;2022-10-15T02:13:51;11.18;;;9.50;;
68653;SDS011;55636;51.108;13.622;2022-10-15T02:15:17;11.98;;;9.07;;
68653;SDS011;55636;51.108;13.622;2022-10-15T02:16:37;12.77;;;9.95;;
68653;SDS011;55636;51.108;13.622;2022-10-15T02:17:45;11.05;;;9.38;;
68653;SDS011;55636;51.108;13.622;2022-10-15T02:20:27;12.32;;;9.43;;
68653;SDS011;55636;51.108;13.622;2022-10-15T02:21:43;11.27;;;9.73;;
68653;SDS011;55636;51.108;13.622;2022-10-15T02:23:09;10.68;;;9.55;;
68653;SDS011;55636;51.108;13.622;2022-10-15T02:24:21;11.13;;;9.73;;
68653;SDS011;55636;51.108;13.622;2022-10-15T02:25:26;10.77;;;9.68;;
68653;SDS011;55636;51.108;13.622;2022-10-15T02:26:30;11.90;;;9.93;;
68653;SDS011;55636;51.108;13.622;2022-10-15T02:27:32;10.52;;;8.90;;
68653;SDS011;55636;51.108;13.622;2022-10-15T02:28:37;11.02;;;9.80;;
68653;SDS011;55636;51.108;13.622;2022-10-15T02:29:43;10.98;;;9.38;;
68653;SDS011;55636;51.108;13.622;2022-10-15T02:30:50;10.77;;;9.60;;
68653;SDS011;55636;51.108;13.622;2022-10-15T02:31:58;11.38;;;9.60;;
68653;SDS011;55636;51.108;13.622;2022-10-15T02:33:05;10.85;;;9.75;;
68653;SDS011;55636;51.108;13.622;2022-10-15T02:34:09;11.30;;;10.10;;
68653;SDS011;55636;51.108;13.622;2022-10-15T02:35:15;11.15;;;9.40;;
68653;SDS011;55636;51.108;13.622;2022-10-15T02:36:18;11.18;;;9.65;;
68653;SDS011;55636;51.108;13.622;2022-10-15T02:37:21;12.47;;;9.77;;
68653;SDS011;55636;51.108;13.622;2022-10-15T02:38:27;10.90;;;9.60;;
68653;SDS011;55636;51.108;13.622;2022-10-15T02:39:33;11.35;;;10.15;;
68653;SDS011;55636;51.108;13.622;2022-10-15T02:40:37;12.30;;;9.65;;
68653;SDS011;55636;51.108;13.622;2022-10-15T02:41:42;10.27;;;9.25;;
68653;SDS011;55636;51.108;13.622;2022-10-15T02:42:48;12.45;;;9.63;;
68653;SDS011;55636;51.108;13.622;2022-10-15T02:43:51;10.70;;;9.60;;
68653;SDS011;55636;51.108;13.622;2022-10-15T02:44:54;12.63;;;9.70;;
68653;SDS011;55636;51.108;13.622;2022-10-15T02:45:56;11.35;;;9.27;;
68653;SDS011;55636;51.108;13.622;2022-10-15T02:47:01;12.18;;;9.90;;
68653;SDS011;55636;51.108;13.622;2022-10-15T02:48:04;11.23;;;9.40;;
68653;SDS011;55636;51.108;13.622;2022-10-15T02:49:06;10.65;;;9.55;;
68653;SDS011;55636;51.108;13.622;2022-10-15T02:50:09;11.73;;;10.00;;
68653;SDS011;55636;51.108;13.622;2022-10-15T02:51:11;11.38;;;9.85;;
68653;SDS011;55636;51.108;13.622;2022-10-15T02:52:13;10.73;;;9.55;;
68653;SDS011;55636;51.108;13.622;2022-10-15T02:53:16;12.73;;;10.32;;
68653;SDS011;55636;51.108;13.622;2022-10-15T02:54:18;10.85;;;9.75;;
68653;SDS011;55636;51.108;13.622;2022-10-15T02:55:21;10.68;;;9.52;;
68653;SDS011;55636;51.108;13.622;2022-10-15T02:56:31;11.18;;;9.65;;
68653;SDS011;55636;51.108;13.622;2022-10-15T02:57:34;11.52;;;9.98;;
68653;SDS011;55636;51.108;13.622;2022-10-15T02:58:38;10.52;;;9.23;;
68653;SDS011;55636;51.108;13.622;2022-10-15T02:59:40;11.65;;;9.90;;
68653;SDS011;55636;51.108;13.622;2022-10-15T03:00:43;10.38;;;9.30;;
68653;SDS011;55636;51.108;13.622;2022-10-15T03:01:48;11.00;;;9.90;;
68653;SDS011;55636;51.108;13.622;2022-10-15T03:02:50;11.15;;;10.00;;
68653;SDS011;55636;51.108;13.622;2022-10-15T03:03:53;13.50;;;10.13;;
68653;SDS011;55636;51.108;13.622;2022-10-15T03:04:56;11.38;;;10.18;;
68653;SDS011;55636;51.108;13.622;2022-10-15T03:05:58;11.32;;;10.13;;
68653;SDS011;55636;51.108;13.622;2022-10-15T03:07:01;13.77;;;10.05;;
68653;SDS011;55636;51.108;13.622;2022-10-15T03:08:04;12.80;;;9.55;;
68653;SDS011;55636;51.108;13.622;2022-10-15T03:09:07;11.55;;;10.35;;
68653;SDS011;55636;51.108;13.622;2022-10-15T03:10:10;12.85;;;9.88;;
68653;SDS011;55636;51.108;13.622;2022-10-15T03:11:14;11.23;;;9.57;;
68653;SDS011;55636;51.108;13.622;2022-10-15T03:12:16;12.05;;;10.20;;
68653;SDS011;55636;51.108;13.622;2022-10-15T03:13:19;10.90;;;9.48;;
68653;SDS011;55636;51.108;13.622;2022-10-15T03:14:25;13.18;;;9.95;;
68653;SDS011;55636;51.108;13.622;2022-10-15T03:15:50;10.70;;;9.60;;
68653;SDS011;55636;51.108;13.622;2022-10-15T03:16:52;11.95;;;9.30;;
68653;SDS011;55636;51.108;13.622;2022-10-15T03:17:55;10.60;;;9.40;;
68653;SDS011;55636;51.108;13.622;2022-10-15T03:18:57;11.98;;;10.70;;
68653;SDS011;55636;51.108;13.622;2022-10-15T03:19:59;10.75;;;9.65;;
68653;SDS011;55636;51.108;13.622;2022-10-15T03:21:04;11.38;;;9.98;;
68653;SDS011;55636;51.108;13.622;2022-10-15T03:22:07;12.13;;;10.03;;
68653;SDS011;55636;51.108;13.622;2022-10-15T03:23:17;10.77;;;9.60;;
68653;SDS011;55636;51.108;13.622;2022-10-15T03:24:19;11.70;;;9.65;;
68653;SDS011;55636;51.108;13.622;2022-10-15T03:25:22;10.65;;;9.55;;
68653;SDS011;55636;51.108;13.622;2022-10-15T03:26:33;11.25;;;10.15;;
68653;SDS011;55636;51.108;13.622;2022-10-15T03:27:35;11.10;;;10.00;;
68653;SDS011;55636;51.108;13.622;2022-10-15T03:28:46;11.50;;;10.30;;
68653;SDS011;55636;51.108;13.622;2022-10-15T03:29:59;11.30;;;9.80;;
68653;SDS011;55636;51.108;13.622;2022-10-15T03:31:04;10.55;;;9.48;;
68653;SDS011;55636;51.108;13.622;2022-10-15T03:32:06;11.85;;;9.80;;
68653;SDS011;55636;51.108;13.622;2022-10-15T03:33:08;13.25;;;10.20;;
68653;SDS011;55636;51.108;13.622;2022-10-15T03:34:12;11.10;;;9.70;;
68653;SDS011;55636;51.108;13.622;2022-10-15T03:35:14;11.10;;;9.73;;
68653;SDS011;55636;51.108;13.622;2022-10-15T03:36:17;11.35;;;10.15;;
68653;SDS011;55636;51.108;13.622;2022-10-15T03:37:19;12.00;;;9.77;;
68653;SDS011;55636;51.108;13.622;2022-10-15T03:38:22;10.93;;;9.73;;
68653;SDS011;55636;51.108;13.622;2022-10-15T03:39:26;10.68;;;9.60;;
68653;SDS011;55636;51.108;13.622;2022-10-15T03:40:32;11.15;;;9.95;;
68653;SDS011;55636;51.108;13.622;2022-10-15T03:41:51;11.70;;;9.73;;
68653;SDS011;55636;51.108;13.622;2022-10-15T03:42:59;11.32;;;9.73;;
68653;SDS011;55636;51.108;13.622;2022-10-15T03:44:02;10.68;;;9.55;;
68653;SDS011;55636;51.108;13.622;2022-10-15T03:45:06;12.00;;;10.27;;
68653;SDS011;55636;51.108;13.622;2022-10-15T03:46:09;11.05;;;9.95;;
68653;SDS011;55636;51.108;13.622;2022-10-15T03:47:16;12.48;;;9.77;;
68653;SDS011;55636;51.108;13.622;2022-10-15T03:48:20;10.85;;;9.73;;
68653;SDS011;55636;51.108;13.622;2022-10-15T03:49:23;10.83;;;9.73;;
68653;SDS011;55636;51.108;13.622;2022-10-15T03:50:25;11.60;;;9.82;;
68653;SDS011;55636;51.108;13.622;2022-10-15T03:51:27;11.25;;;10.05;;
68653;SDS011;55636;51.108;13.622;2022-10-15T03:52:39;11.50;;;9.55;;
68653;SDS011;55636;51.108;13.622;2022-10-15T03:53:45;10.80;;;9.70;;
68653;SDS011;55636;51.108;13.622;2022-10-15T03:54:47;11.10;;;9.77;;
68653;SDS011;55636;51.108;13.622;2022-10-15T03:55:53;11.20;;;10.10;;
68653;SDS011;55636;51.108;13.622;2022-10-15T03:56:55;11.93;;;10.40;;
68653;SDS011;55636;51.108;13.622;2022-10-15T03:58:08;11.75;;;9.77;;
68653;SDS011;55636;51.108;13.622;2022-10-15T03:59:15;11.15;;;9.93;;
68653;SDS011;55636;51.108;13.622;2022-10-15T04:00:24;11.77;;;10.00;;
68653;SDS011;55636;51.108;13.622;2022-10-15T04:01:31;10.82;;;9.73;;
68653;SDS011;55636;51.108;13.622;2022-10-15T04:02:35;11.77;;;10.25;;
68653;SDS011;55636;51.108;13.622;2022-10-15T04:03:38;10.88;;;9.77;;
68653;SDS011;55636;51.108;13.622;2022-10-15T04:04:40;12.68;;;10.52;;
68653;SDS011;55636;51.108;13.622;2022-10-15T04:05:48;11.57;;;10.38;;
68653;SDS011;55636;51.108;13.622;2022-10-15T04:06:59;11.73;;;10.13;;
68653;SDS011;55636;51.108;13.622;2022-10-15T04:08:03;11.02;;;9.68;;
68653;SDS011;55636;51.108;13.622;2022-10-15T04:09:09;10.98;;;9.88;;
68653;SDS011;55636;51.108;13.622;2022-10-15T04:10:12;12.05;;;10.40;;
68653;SDS011;55636;51.108;13.622;2022-10-15T04:11:14;13.38;;;10.48;;
68653;SDS011;55636;51.108;13.622;2022-10-15T04:12:18;11.25;;;10.02;;
68653;SDS011;55636;51.108;13.622;2022-10-15T04:13:20;11.40;;;10.27;;
68653;SDS011;55636;51.108;13.622;2022-10-15T04:14:22;13.18;;;9.95;;
68653;SDS011;55636;51.108;13.622;2022-10-15T04:15:25;11.52;;;9.95;;
68653;SDS011;55636;51.108;13.622;2022-10-15T04:16:33;11.85;;;10.27;;
68653;SDS011;55636;51.108;13.622;2022-10-15T04:17:44;12.40;;;10.50;;
68653;SDS011;55636;51.108;13.622;2022-10-15T04:18:46;10.95;;;9.85;;
68653;SDS011;55636;51.108;13.622;2022-10-15T04:19:48;12.80;;;9.95;;
68653;SDS011;55636;51.108;13.622;2022-10-15T04:20:57;11.88;;;10.52;;
68653;SDS011;55636;51.108;13.622;2022-10-15T04:22:00;11.13;;;9.93;;
68653;SDS011;55636;51.108;13.622;2022-10-15T04:23:13;11.48;;;9.82;;
68653;SDS011;55636;51.108;13.622;2022-10-15T04:24:28;11.20;;;10.00;;
68653;SDS011;55636;51.108;13.622;2022-10-15T04:25:31;14.13;;;10.45;;
68653;SDS011;55636;51.108;13.622;2022-10-15T04:26:34;11.65;;;10.20;;
68653;SDS011;55636;51.108;13.622;2022-10-15T04:27:37;11.60;;;10.40;;
68653;SDS011;55636;51.108;13.622;2022-10-15T04:28:42;11.10;;;10.00;;
68653;SDS011;55636;51.108;13.622;2022-10-15T04:29:46;12.57;;;10.55;;
68653;SDS011;55636;51.108;13.622;2022-10-15T04:30:49;11.68;;;10.23;;
68653;SDS011;55636;51.108;13.622;2022-10-15T04:31:54;11.05;;;9.88;;
68653;SDS011;55636;51.108;13.622;2022-10-15T04:32:56;11.15;;;10.05;;
68653;SDS011;55636;51.108;13.622;2022-10-15T04:33:59;12.18;;;10.35;;
68653;SDS011;55636;51.108;13.622;2022-10-15T04:35:02;13.75;;;10.45;;
68653;SDS011;55636;51.108;13.622;2022-10-15T04:36:23;12.20;;;10.90;;
68653;SDS011;55636;51.108;13.622;2022-10-15T04:37:34;11.43;;;10.32;;
68653;SDS011;55636;51.108;13.622;2022-10-15T04:38:37;11.30;;;10.18;;
68653;SDS011;55636;51.108;13.622;2022-10-15T04:39:40;11.10;;;9.90;;
68653;SDS011;55636;51.108;13.622;2022-10-15T04:40:46;10.55;;;9.40;;
68653;SDS011;55636;51.108;13.622;2022-10-15T04:41:48;11.35;;;10.15;;
68653;SDS011;55636;51.108;13.622;2022-10-15T04:43:03;11.67;;;10.27;;
68653;SDS011;55636;51.108;13.622;2022-10-15T04:44:06;11.47;;;10.27;;
68653;SDS011;55636;51.108;13.622;2022-10-15T04:45:08;12.13;;;10.60;;
68653;SDS011;55636;51.108;13.622;2022-10-15T04:46:11;11.98;;;10.77;;
68653;SDS011;55636;51.108;13.622;2022-10-15T04:47:14;12.10;;;10.45;;
68653;SDS011;55636;51.108;13.622;2022-10-15T04:48:28;12.38;;;10.95;;
68653;SDS011;55636;51.108;13.622;2022-10-15T04:49:31;12.45;;;10.20;;
68653;SDS011;55636;51.108;13.622;2022-10-15T04:50:36;12.93;;;10.50;;
68653;SDS011;55636;51.108;13.622;2022-10-15T04:51:53;11.82;;;10.52;;
68653;SDS011;55636;51.108;13.622;2022-10-15T04:53:01;11.60;;;10.40;;
68653;SDS011;55636;51.108;13.622;2022-10-15T04:54:08;11.93;;;10.50;;
68653;SDS011;55636;51.108;13.622;2022-10-15T04:55:20;11.23;;;10.13;;
68653;SDS011;55636;51.108;13.622;2022-10-15T04:56:23;11.75;;;10.60;;
68653;SDS011;55636;51.108;13.622;2022-10-15T04:57:26;12.37;;;10.80;;
68653;SDS011;55636;51.108;13.622;2022-10-15T04:58:30;11.73;;;10.50;;
68653;SDS011;55636;51.108;13.622;2022-10-15T04:59:36;12.93;;;10.82;;
68653;SDS011;55636;51.108;13.622;2022-10-15T05:01:08;12.05;;;10.25;;
68653;SDS011;55636;51.108;13.622;2022-10-15T05:02:45;12.23;;;10.97;;
68653;SDS011;55636;51.108;13.622;2022-10-15T05:04:11;11.40;;;10.30;;
68653;SDS011;55636;51.108;13.622;2022-10-15T05:05:14;12.83;;;10.80;;
68653;SDS011;55636;51.108;13.622;2022-10-15T05:06:26;11.85;;;10.38;;
68653;SDS011;55636;51.108;13.622;2022-10-15T05:07:35;13.03;;;10.77;;
68653;SDS011;55636;51.108;13.622;2022-10-15T05:08:37;14.32;;;10.52;;
68653;SDS011;55636;51.108;13.622;2022-10-15T05:09:57;11.97;;;10.47;;
68653;SDS011;55636;51.108;13.622;2022-10-15T05:11:06;12.57;;;11.27;;
68653;SDS011;55636;51.108;13.622;2022-10-15T05:12:10;12.63;;;10.63;;
68653;SDS011;55636;51.108;13.622;2022-10-15T05:13:13;12.65;;;11.32;;
68653;SDS011;55636;51.108;13.622;2022-10-15T05:14:16;11.27;;;9.90;;
68653;SDS011;55636;51.108;13.622;2022-10-15T05:15:30;12.35;;;11.05;;
68653;SDS011;55636;51.108;13.622;2022-10-15T05:16:32;11.85;;;10.45;;
68653;SDS011;55636;51.108;13.622;2022-10-15T05:17:35;14.68;;;10.70;;
68653;SDS011;55636;51.108;13.622;2022-10-15T05:18:37;11.50;;;10.23;;
68653;SDS011;55636;51.108;13.622;2022-10-15T05:19:40;13.70;;;10.80;;
68653;SDS011;55636;51.108;13.622;2022-10-15T05:20:50;11.57;;;10.30;;
68653;SDS011;55636;51.108;13.622;2022-10-15T05:21:54;11.82;;;10.38;;
68653;SDS011;55636;51.108;13.622;2022-10-15T05:22:58;12.03;;;10.53;;
68653;SDS011;55636;51.108;13.622;2022-10-15T05:24:06;14.03;;;10.47;;
68653;SDS011;55636;51.108;13.622;2022-10-15T05:25:31;11.20;;;9.98;;
68653;SDS011;55636;51.108;13.622;2022-10-15T05:26:33;11.60;;;10.02;;
68653;SDS011;55636;51.108;13.622;2022-10-15T05:27:36;11.65;;;10.45;;
68653;SDS011;55636;51.108;13.622;2022-10-15T05:28:39;11.82;;;10.02;;
68653;SDS011;55636;51.108;13.622;2022-10-15T05:29:45;12.45;;;11.00;;
68653;SDS011;55636;51.108;13.622;2022-10-15T05:30:52;11.43;;;10.23;;
68653;SDS011;55636;51.108;13.622;2022-10-15T05:31:54;11.43;;;10.23;;
68653;SDS011;55636;51.108;13.622;2022-10-15T05:33:00;11.30;;;10.20;;
68653;SDS011;55636;51.108;13.622;2022-10-15T05:34:06;11.80;;;10.30;;
68653;SDS011;55636;51.108;13.622;2022-10-15T05:35:19;11.52;;;10.38;;
68653;SDS011;55636;51.108;13.622;2022-10-15T05:36:32;11.68;;;10.20;;
68653;SDS011;55636;51.108;13.622;2022-10-15T05:37:35;10.57;;;9.57;;
68653;SDS011;55636;51.108;13.622;2022-10-15T05:38:38;10.63;;;9.63;;
68653;SDS011;55636;51.108;13.622;2022-10-15T05:39:42;11.07;;;9.87;;
68653;SDS011;55636;51.108;13.622;2022-10-15T05:40:48;10.70;;;9.60;;
68653;SDS011;55636;51.108;13.622;2022-10-15T05:41:57;10.25;;;9.20;;
68653;SDS011;55636;51.108;13.622;2022-10-15T05:43:13;10.23;;;9.23;;
68653;SDS011;55636;51.108;13.622;2022-10-15T05:44:15;9.90;;;8.82;;
68653;SDS011;55636;51.108;13.622;2022-10-15T05:45:18;10.50;;;9.38;;
68653;SDS011;55636;51.108;13.622;2022-10-15T05:46:20;10.90;;;9.13;;
68653;SDS011;55636;51.108;13.622;2022-10-15T05:47:22;10.30;;;9.20;;
68653;SDS011;55636;51.108;13.622;2022-10-15T05:48:38;10.45;;;9.32;;
68653;SDS011;55636;51.108;13.622;2022-10-15T05:49:43;12.05;;;9.68;;
68653;SDS011;55636;51.108;13.622;2022-10-15T05:50:50;10.65;;;9.55;;
68653;SDS011;55636;51.108;13.622;2022-10-15T05:51:58;10.53;;;9.03;;
68653;SDS011;55636;51.108;13.622;2022-10-15T05:53:25;10.35;;;9.25;;
68653;SDS011;55636;51.108;13.622;2022-10-15T05:54:33;10.43;;;9.33;;
68653;SDS011;55636;51.108;13.622;2022-10-15T05:55:35;10.10;;;9.10;;
68653;SDS011;55636;51.108;13.622;2022-10-15T05:56:38;11.52;;;9.18;;
68653;SDS011;55636;51.108;13.622;2022-10-15T05:57:40;9.85;;;8.77;;
68653;SDS011;55636;51.108;13.622;2022-10-15T05:58:42;10.57;;;9.48;;
68653;SDS011;55636;51.108;13.622;2022-10-15T05:59:45;10.52;;;8.95;;
68653;SDS011;55636;51.108;13.622;2022-10-15T06:00:53;10.15;;;9.00;;
68653;SDS011;55636;51.108;13.622;2022-10-15T06:01:55;10.43;;;9.32;;
68653;SDS011;55636;51.108;13.622;2022-10-15T06:02:58;10.18;;;8.63;;
68653;SDS011;55636;51.108;13.622;2022-10-15T06:04:00;10.15;;;9.15;;
68653;SDS011;55636;51.108;13.622;2022-10-15T06:05:04;9.83;;;8.80;;
68653;SDS011;55636;51.108;13.622;2022-10-15T06:06:17;9.68;;;8.57;;
68653;SDS011;55636;51.108;13.622;2022-10-15T06:07:21;10.10;;;9.00;;
68653;SDS011;55636;51.108;13.622;2022-10-15T06:08:24;9.70;;;8.70;;
68653;SDS011;55636;51.108;13.622;2022-10-15T06:09:26;10.07;;;8.80;;
68653;SDS011;55636;51.108;13.622;2022-10-15T06:10:29;9.70;;;8.70;;
68653;SDS011;55636;51.108;13.622;2022-10-15T06:11:31;9.77;;;8.77;;
68653;SDS011;55636;51.108;13.622;2022-10-15T06:12:33;11.88;;;8.93;;
68653;SDS011;55636;51.108;13.622;2022-10-15T06:13:38;13.07;;;9.20;;
68653;SDS011;55636;51.108;13.622;2022-10-15T06:14:42;9.67;;;8.67;;
68653;SDS011;55636;51.108;13.622;2022-10-15T06:15:44;10.80;;;8.73;;
68653;SDS011;55636;51.108;13.622;2022-10-15T06:16:47;9.63;;;8.20;;
68653;SDS011;55636;51.108;13.622;2022-10-15T06:17:51;10.35;;;9.30;;
68653;SDS011;55636;51.108;13.622;2022-10-15T06:18:55;13.07;;;8.63;;
68653;SDS011;55636;51.108;13.622;2022-10-15T06:19:57;10.23;;;9.05;;
68653;SDS011;55636;51.108;13.622;2022-10-15T06:20:59;9.60;;;8.60;;
68653;SDS011;55636;51.108;13.622;2022-10-15T06:22:01;9.52;;;8.50;;
68653;SDS011;55636;51.108;13.622;2022-10-15T06:23:04;9.65;;;8.73;;
68653;SDS011;55636;51.108;13.622;2022-10-15T06:24:06;10.38;;;9.27;;
68653;SDS011;55636;51.108;13.622;2022-10-15T06:25:11;10.15;;;9.05;;
68653;SDS011;55636;51.108;13.622;2022-10-15T06:26:13;10.20;;;9.18;;
68653;SDS011;55636;51.108;13.622;2022-10-15T06:27:15;10.48;;;8.77;;
68653;SDS011;55636;51.108;13.622;2022-10-15T06:28:18;9.50;;;8.50;;
68653;SDS011;55636;51.108;13.622;2022-10-15T06:29:20;9.60;;;8.60;;
68653;SDS011;55636;51.108;13.622;2022-10-15T06:30:24;9.63;;;8.60;;
68653;SDS011;55636;51.108;13.622;2022-10-15T06:31:26;10.30;;;9.20;;
68653;SDS011;55636;51.108;13.622;2022-10-15T06:32:28;9.85;;;8.50;;
68653;SDS011;55636;51.108;13.622;2022-10-15T06:33:31;10.10;;;9.02;;
68653;SDS011;55636;51.108;13.622;2022-10-15T06:34:33;9.40;;;8.50;;
68653;SDS011;55636;51.108;13.622;2022-10-15T06:35:35;10.75;;;9.07;;
68653;SDS011;55636;51.108;13.622;2022-10-15T06:36:38;9.88;;;8.70;;
68653;SDS011;55636;51.108;13.622;2022-10-15T06:37:40;10.52;;;8.82;;
68653;SDS011;55636;51.108;13.622;2022-10-15T06:38:42;9.52;;;8.55;;
68653;SDS011;55636;51.108;13.622;2022-10-15T06:39:45;9.52;;;8.52;;
68653;SDS011;55636;51.108;13.622;2022-10-15T06:40:47;10.27;;;8.73;;
68653;SDS011;55636;51.108;13.622;2022-10-15T06:41:49;10.20;;;8.35;;
68653;SDS011;55636;51.108;13.622;2022-10-15T06:42:52;10.50;;;8.98;;
68653;SDS011;55636;51.108;13.622;2022-10-15T06:43:54;10.27;;;8.55;;
68653;SDS011;55636;51.108;13.622;2022-10-15T06:44:56;9.60;;;8.60;;
68653;SDS011;55636;51.108;13.622;2022-10-15T06:45:58;9.38;;;8.38;;
68653;SDS011;55636;51.108;13.622;2022-10-15T06:47:01;9.65;;;8.63;;
68653;SDS011;55636;51.108;13.622;2022-10-15T06:48:04;9.25;;;8.25;;
68653;SDS011;55636;51.108;13.622;2022-10-15T06:49:07;9.93;;;8.93;;
68653;SDS011;55636;51.108;13.622;2022-10-15T06:50:10;9.07;;;8.18;;
68653;SDS011;55636;51.108;13.622;2022-10-15T06:51:13;9.80;;;8.77;;